createdAt,value
2022-08-01T00:01:51.257Z,19.60
2022-08-01T00:04:19.022Z,23.40
2022-08-01T00:06:50.332Z,21.55
2022-08-01T00:09:23.732Z,22.15
2022-08-01T00:11:59.946Z,17.83
2022-08-01T00:14:48.309Z,26.25
2022-08-01T00:17:18.280Z,22.55
2022-08-01T00:19:46.051Z,20.40
2022-08-01T00:22:14.058Z,19.98
2022-08-01T00:24:41.881Z,20.58
2022-08-01T00:27:09.857Z,18.30
2022-08-01T00:30:12.591Z,13.30
2022-08-01T00:32:28.061Z,27.88
2022-08-01T00:34:56.693Z,18.70
2022-08-01T00:37:26.192Z,18.25
2022-08-01T00:39:54.317Z,20.00
2022-08-01T00:42:22.270Z,15.07
2022-08-01T00:44:50.211Z,12.45
2022-08-01T00:47:17.936Z,14.52
2022-08-01T00:49:45.931Z,15.63
2022-08-01T00:52:13.900Z,17.17
2022-08-01T00:54:42.585Z,14.45
2022-08-01T00:57:11.059Z,14.98
2022-08-01T00:59:41.304Z,14.40
2022-08-01T01:02:36.153Z,16.33
2022-08-01T01:05:07.567Z,14.93
2022-08-01T01:07:53.540Z,17.80
2022-08-01T01:10:36.563Z,24.80
2022-08-01T01:13:33.054Z,26.08
2022-08-01T01:16:19.931Z,17.67
2022-08-01T01:19:01.720Z,19.63
2022-08-01T01:21:35.520Z,17.75
2022-08-01T01:24:32.734Z,19.05
2022-08-01T01:27:32.889Z,23.35
2022-08-01T01:30:02.298Z,20.65
2022-08-01T01:32:39.119Z,22.83
2022-08-01T01:35:16.738Z,24.95
2022-08-01T01:37:49.152Z,21.10
2022-08-01T01:40:22.549Z,31.70
2022-08-01T01:42:53.152Z,23.67
2022-08-01T01:45:26.769Z,22.35
2022-08-01T01:47:57.500Z,30.77
2022-08-01T01:50:28.618Z,19.00
2022-08-01T01:55:26.937Z,20.95
2022-08-01T01:57:56.888Z,14.13
2022-08-01T02:00:26.161Z,27.65
2022-08-01T02:02:57.775Z,21.05
2022-08-01T02:05:29.213Z,20.50
2022-08-01T02:07:59.374Z,15.35
2022-08-01T02:10:28.928Z,16.35
2022-08-01T02:13:00.902Z,17.83
2022-08-01T02:15:31.074Z,17.95
2022-08-01T02:18:00.739Z,17.88
2022-08-01T02:20:31.942Z,15.52
2022-08-01T02:23:13.123Z,16.52
2022-08-01T02:26:09.702Z,19.25
2022-08-01T02:28:42.853Z,13.07
2022-08-01T02:31:17.944Z,15.27
2022-08-01T02:33:56.643Z,18.88
2022-08-01T02:36:31.642Z,16.70
2022-08-01T02:39:07.606Z,31.55
2022-08-01T02:41:42.288Z,13.77
2022-08-01T02:44:22.647Z,23.45
2022-08-01T02:47:13.802Z,16.10
2022-08-01T02:49:46.355Z,15.05
2022-08-01T02:52:17.432Z,24.95
2022-08-01T02:55:13.080Z,15.82
2022-08-01T02:57:52.576Z,18.35
2022-08-01T03:00:26.098Z,19.92
2022-08-01T03:02:56.324Z,14.75
2022-08-01T03:05:26.357Z,24.58
2022-08-01T03:07:56.666Z,15.68
2022-08-01T03:10:32.484Z,14.95
2022-08-01T03:13:26.946Z,16.05
2022-08-01T03:15:57.025Z,20.05
2022-08-01T03:18:26.982Z,19.55
2022-08-01T03:20:57.482Z,19.85
2022-08-01T03:23:37.832Z,15.27
2022-08-01T03:26:33.301Z,15.68
2022-08-01T03:29:22.184Z,22.00
2022-08-01T03:31:50.635Z,15.88
2022-08-01T03:34:18.863Z,15.32
2022-08-01T03:36:51.028Z,33.28
2022-08-01T03:39:26.349Z,15.32
2022-08-01T03:42:22.064Z,19.80
2022-08-01T03:44:55.845Z,21.00
2022-08-01T03:47:43.478Z,17.83
2022-08-01T03:50:15.335Z,18.52
2022-08-01T03:52:47.791Z,17.02
2022-08-01T03:55:42.429Z,22.33
2022-08-01T03:58:11.778Z,19.27
2022-08-01T04:00:40.878Z,18.00
2022-08-01T04:03:10.186Z,16.48
2022-08-01T04:05:38.206Z,19.63
2022-08-01T04:08:06.159Z,19.92
2022-08-01T04:10:34.166Z,17.02
2022-08-01T04:13:02.035Z,19.50
2022-08-01T04:15:33.001Z,21.48
2022-08-01T04:18:02.144Z,21.33
2022-08-01T04:20:30.118Z,17.75
2022-08-01T04:22:57.849Z,19.90
2022-08-01T04:25:36.409Z,18.00
2022-08-01T04:28:09.035Z,24.05
2022-08-01T04:31:03.985Z,29.70
2022-08-01T04:33:43.677Z,25.75
2022-08-01T04:36:16.048Z,24.38
2022-08-01T04:38:49.761Z,26.33
2022-08-01T04:41:19.937Z,26.02
2022-08-01T04:43:48.240Z,32.33
2022-08-01T04:46:18.658Z,26.83
2022-08-01T04:49:13.094Z,22.13
2022-08-01T04:52:01.372Z,19.77
2022-08-01T04:54:31.113Z,25.52
2022-08-01T04:57:01.251Z,25.10
2022-08-01T04:59:42.313Z,21.53
2022-08-01T05:02:17.287Z,21.77
2022-08-01T05:05:13.600Z,20.90
2022-08-01T05:07:45.422Z,26.63
2022-08-01T05:10:13.734Z,23.58
2022-08-01T05:12:41.572Z,24.48
2022-08-01T05:15:15.253Z,25.90
2022-08-01T05:17:43.964Z,27.73
2022-08-01T05:20:13.519Z,26.77
2022-08-01T05:22:41.487Z,27.95
2022-08-01T05:25:09.511Z,32.22
2022-08-01T05:27:40.721Z,31.35
2022-08-01T05:30:10.435Z,32.83
2022-08-01T05:32:38.360Z,42.80
2022-08-01T05:35:06.820Z,36.63
2022-08-01T05:37:42.733Z,36.85
2022-08-01T05:40:11.480Z,37.05
2022-08-01T05:43:07.226Z,32.85
2022-08-01T05:45:39.941Z,29.60
2022-08-01T05:48:09.512Z,31.17
2022-08-01T05:50:38.291Z,32.35
2022-08-01T05:53:06.366Z,24.45
2022-08-01T05:55:34.361Z,23.23
2022-08-01T05:58:03.280Z,26.55
2022-08-01T06:00:31.209Z,22.30
2022-08-01T06:02:59.129Z,27.25
2022-08-01T06:05:27.293Z,25.05
2022-08-01T06:07:55.208Z,29.95
2022-08-01T06:10:23.195Z,24.95
2022-08-01T06:12:51.201Z,29.90
2022-08-01T06:15:18.967Z,32.83
2022-08-01T06:17:48.277Z,25.70
2022-08-01T06:20:16.471Z,27.52
2022-08-01T06:22:44.338Z,29.20
2022-08-01T06:25:21.372Z,33.17
2022-08-01T06:27:50.866Z,32.92
2022-08-01T06:30:22.471Z,29.48
2022-08-01T06:32:50.444Z,28.08
2022-08-01T06:35:18.362Z,21.70
2022-08-01T06:37:48.284Z,27.40
2022-08-01T06:40:17.452Z,24.85
2022-08-01T06:42:47.935Z,25.25
2022-08-01T06:45:16.799Z,22.83
2022-08-01T06:47:50.787Z,16.75
2022-08-01T06:50:19.287Z,25.58
2022-08-01T06:52:47.100Z,18.45
2022-08-01T06:55:15.379Z,22.42
2022-08-01T06:57:53.686Z,15.82
2022-08-01T07:00:25.642Z,15.95
2022-08-01T07:02:59.922Z,18.08
2022-08-01T07:05:53.979Z,14.20
2022-08-01T07:08:22.419Z,18.40
2022-08-01T07:10:51.298Z,16.70
2022-08-01T07:13:22.742Z,13.57
2022-08-01T07:15:51.350Z,17.23
2022-08-01T07:18:19.113Z,14.38
2022-08-01T07:20:51.160Z,10.95
2022-08-01T07:23:22.674Z,22.17
2022-08-01T07:26:22.863Z,10.88
2022-08-01T07:28:50.661Z,7.97
2022-08-01T07:31:22.338Z,9.65
2022-08-01T07:33:51.867Z,18.95
2022-08-01T07:36:20.181Z,17.55
2022-08-01T07:38:48.589Z,12.27
2022-08-01T07:41:18.445Z,10.75
2022-08-01T07:43:56.084Z,17.90
2022-08-01T07:46:50.883Z,15.40
2022-08-01T07:49:18.909Z,14.68
2022-08-01T07:52:03.311Z,16.48
2022-08-01T07:54:34.691Z,16.23
2022-08-01T07:57:05.181Z,13.10
2022-08-01T07:59:33.596Z,11.55
2022-08-01T08:02:02.332Z,12.38
2022-08-01T08:04:30.799Z,10.20
2022-08-01T08:07:00.184Z,9.00
2022-08-01T08:09:52.878Z,9.32
2022-08-01T08:12:48.063Z,16.55
2022-08-01T08:15:41.031Z,11.60
2022-08-01T08:18:09.020Z,8.55
2022-08-01T08:20:38.218Z,8.57
2022-08-01T08:23:42.925Z,14.05
2022-08-01T08:26:39.288Z,12.38
2022-08-01T08:29:09.162Z,14.23
2022-08-01T08:31:51.353Z,12.77
2022-08-01T08:34:22.111Z,7.70
2022-08-01T08:36:51.249Z,8.23
2022-08-01T08:39:20.234Z,6.88
2022-08-01T08:41:50.152Z,7.28
2022-08-01T08:44:44.464Z,9.10
2022-08-01T08:47:19.781Z,6.13
2022-08-01T08:49:52.541Z,5.72
2022-08-01T08:52:25.610Z,8.85
2022-08-01T08:54:57.930Z,9.82
2022-08-01T08:57:52.157Z,9.00
2022-08-01T09:00:20.183Z,10.70
2022-08-01T09:02:50.473Z,11.52
2022-08-01T09:05:20.267Z,9.75
2022-08-01T09:07:48.033Z,7.38
2022-08-01T09:10:16.047Z,6.88
2022-08-01T09:13:14.137Z,7.85
2022-08-01T09:16:07.002Z,8.95
2022-08-01T09:18:44.807Z,13.63
2022-08-01T09:21:38.129Z,18.08
2022-08-01T09:24:17.565Z,10.10
2022-08-01T09:26:59.510Z,16.17
2022-08-01T09:29:37.687Z,15.07
2022-08-01T09:32:07.630Z,9.00
2022-08-01T09:34:35.886Z,21.20
2022-08-01T09:37:05.729Z,11.77
2022-08-01T09:39:40.703Z,14.25
2022-08-01T09:42:29.121Z,12.93
2022-08-01T09:44:57.600Z,13.65
2022-08-01T09:47:39.588Z,8.75
2022-08-01T09:50:11.025Z,19.63
2022-08-01T09:52:41.242Z,10.95
2022-08-01T09:55:10.434Z,7.35
2022-08-01T09:57:39.166Z,24.80
2022-08-01T10:00:35.706Z,14.07
2022-08-01T10:03:24.153Z,11.27
2022-08-01T10:05:54.764Z,10.45
2022-08-01T10:08:24.475Z,3.05
2022-08-01T10:11:12.431Z,5.90
2022-08-01T10:13:41.380Z,13.25
2022-08-01T10:16:10.601Z,8.32
2022-08-01T10:18:42.263Z,8.02
2022-08-01T10:21:13.406Z,6.70
2022-08-01T10:23:42.864Z,10.25
2022-08-01T10:26:13.418Z,17.88
2022-08-01T10:28:42.308Z,19.95
2022-08-01T10:31:12.745Z,11.18
2022-08-01T10:33:52.470Z,7.32
2022-08-01T10:36:25.457Z,5.82
2022-08-01T10:38:56.642Z,8.25
2022-08-01T10:43:56.918Z,5.22
2022-08-01T10:46:26.273Z,5.63
2022-08-01T10:49:27.069Z,4.55
2022-08-01T10:51:56.107Z,5.45
2022-08-01T10:54:26.807Z,7.18
2022-08-01T10:56:57.598Z,6.80
2022-08-01T10:59:49.621Z,9.30
2022-08-01T11:02:32.218Z,3.97
2022-08-01T11:05:19.939Z,14.90
2022-08-01T11:07:53.979Z,7.60
2022-08-01T11:10:30.930Z,7.57
2022-08-01T11:13:00.267Z,9.40
2022-08-01T11:15:30.867Z,7.45
2022-08-01T11:18:04.505Z,7.05
2022-08-01T11:20:41.953Z,11.60
2022-08-01T11:23:13.867Z,8.90
2022-08-01T11:26:05.364Z,10.43
2022-08-01T11:28:36.876Z,22.55
2022-08-01T11:31:11.054Z,5.65
2022-08-01T11:33:45.868Z,4.18
2022-08-01T11:36:15.654Z,6.03
2022-08-01T11:39:13.869Z,10.48
2022-08-01T11:41:44.935Z,15.60
2022-08-01T11:44:20.850Z,20.33
2022-08-01T11:47:09.403Z,7.07
2022-08-01T11:50:03.834Z,9.30
2022-08-01T11:52:42.101Z,15.25
2022-08-01T11:55:11.471Z,7.43
2022-08-01T11:57:40.156Z,6.32
2022-08-01T12:00:18.062Z,9.82
2022-08-01T12:02:48.136Z,15.05
2022-08-01T12:05:24.870Z,17.40
2022-08-01T12:07:56.559Z,8.80
2022-08-01T12:10:34.090Z,6.55
2022-08-01T12:13:28.073Z,11.25
2022-08-01T12:15:56.920Z,7.57
2022-08-01T12:18:24.985Z,6.07
2022-08-01T12:21:01.965Z,7.38
2022-08-01T12:23:31.343Z,7.00
2022-08-01T12:25:59.312Z,7.22
2022-08-01T12:28:28.565Z,6.78
2022-08-01T12:30:56.611Z,5.97
2022-08-01T12:33:25.928Z,9.02
2022-08-01T12:35:54.070Z,8.35
2022-08-01T12:38:24.207Z,10.40
2022-08-01T12:40:53.601Z,9.38
2022-08-01T12:46:01.674Z,6.93
2022-08-01T12:48:32.464Z,7.05
2022-08-01T12:53:41.269Z,5.00
2022-08-01T12:56:14.147Z,5.97
2022-08-01T12:58:42.073Z,8.65
2022-08-01T13:01:12.571Z,9.75
2022-08-01T13:03:41.268Z,6.22
2022-08-01T13:06:17.919Z,7.30
2022-08-01T13:08:46.578Z,6.15
2022-08-01T13:11:17.745Z,11.23
2022-08-01T13:13:53.892Z,10.57
2022-08-01T13:16:49.129Z,6.70
2022-08-01T13:19:19.377Z,8.73
2022-08-01T13:22:02.549Z,8.93
2022-08-01T13:24:31.996Z,9.40
2022-08-01T13:27:04.438Z,11.27
2022-08-01T13:29:35.948Z,11.02
2022-08-01T13:32:28.357Z,6.65
2022-08-01T13:35:09.728Z,7.55
2022-08-01T13:37:39.371Z,11.02
2022-08-01T13:40:09.136Z,6.35
2022-08-01T13:42:38.234Z,6.63
2022-08-01T13:45:11.903Z,6.65
2022-08-01T13:48:03.823Z,7.57
2022-08-01T13:50:33.583Z,7.60
2022-08-01T13:53:27.073Z,9.73
2022-08-01T13:55:55.493Z,9.80
2022-08-01T13:58:27.504Z,9.93
2022-08-01T14:00:56.819Z,8.07
2022-08-01T14:03:33.334Z,10.60
2022-08-01T14:06:03.144Z,7.72
2022-08-01T14:08:32.252Z,20.35
2022-08-01T14:11:00.859Z,10.70
2022-08-01T14:13:33.802Z,14.60
2022-08-01T14:16:06.503Z,18.65
2022-08-01T14:18:34.878Z,10.27
2022-08-01T14:21:06.014Z,10.65
2022-08-01T14:23:33.894Z,9.77
2022-08-01T14:26:08.397Z,6.65
2022-08-01T14:28:40.455Z,9.27
2022-08-01T14:31:09.059Z,8.95
2022-08-01T14:33:37.616Z,11.43
2022-08-01T14:36:30.493Z,10.10
2022-08-01T14:38:55.616Z,9.45
2022-08-01T14:41:30.773Z,9.68
2022-08-01T14:44:00.841Z,8.38
2022-08-01T14:46:34.032Z,8.93
2022-08-01T14:49:02.118Z,9.43
2022-08-01T14:51:34.307Z,9.35
2022-08-01T14:54:02.222Z,8.35
2022-08-01T14:56:35.510Z,7.25
2022-08-01T14:59:03.694Z,10.82
2022-08-01T15:01:49.085Z,11.32
2022-08-01T15:04:18.474Z,7.45
2022-08-01T15:06:46.583Z,9.10
2022-08-01T15:09:14.320Z,9.43
2022-08-01T15:11:42.435Z,12.13
2022-08-01T15:14:28.689Z,10.88
2022-08-01T15:16:56.805Z,9.88
2022-08-01T15:19:24.836Z,13.38
2022-08-01T15:21:52.700Z,10.35
2022-08-01T15:24:23.826Z,9.20
2022-08-01T15:26:52.284Z,11.20
2022-08-01T15:29:22.464Z,13.43
2022-08-01T15:31:50.729Z,8.05
2022-08-01T15:34:19.308Z,11.30
2022-08-01T15:37:12.312Z,7.97
2022-08-01T15:39:40.635Z,13.25
2022-08-01T15:45:20.738Z,13.93
2022-08-01T15:47:54.009Z,18.08
2022-08-01T15:50:22.081Z,21.50
2022-08-01T15:52:52.699Z,13.70
2022-08-01T15:55:20.963Z,12.75
2022-08-01T15:57:48.857Z,13.80
2022-08-01T16:00:17.235Z,12.38
2022-08-01T16:02:44.959Z,12.25
2022-08-01T16:05:19.700Z,9.63
2022-08-01T16:07:59.611Z,9.77
2022-08-01T16:10:31.136Z,12.13
2022-08-01T16:13:04.469Z,8.85
2022-08-01T16:15:45.623Z,8.50
2022-08-01T16:18:14.704Z,11.07
2022-08-01T16:20:47.469Z,9.80
2022-08-01T16:23:16.145Z,8.15
2022-08-01T16:25:45.135Z,8.23
2022-08-01T16:28:14.559Z,8.75
2022-08-01T16:30:48.675Z,9.65
2022-08-01T16:33:45.852Z,6.20
2022-08-01T16:36:16.633Z,6.35
2022-08-01T16:38:47.948Z,9.68
2022-08-01T16:41:20.626Z,9.30
2022-08-01T16:43:53.476Z,9.63
2022-08-01T16:46:43.828Z,7.28
2022-08-01T16:49:20.871Z,9.70
2022-08-01T16:51:49.639Z,10.32
2022-08-01T16:54:25.185Z,8.52
2022-08-01T16:57:08.748Z,8.85
2022-08-01T17:02:15.930Z,7.05
2022-08-01T17:04:44.341Z,10.13
2022-08-01T17:07:13.690Z,10.32
2022-08-01T17:09:43.638Z,8.18
2022-08-01T17:12:22.415Z,10.73
2022-08-01T17:14:52.009Z,9.05
2022-08-01T17:17:21.130Z,8.77
2022-08-01T17:19:50.465Z,8.40
2022-08-01T17:22:19.370Z,9.23
2022-08-01T17:24:51.445Z,9.35
2022-08-01T17:27:20.493Z,8.38
2022-08-01T17:29:48.632Z,10.57
2022-08-01T17:32:42.588Z,10.65
2022-08-01T17:35:37.305Z,8.18
2022-08-01T17:38:05.330Z,9.43
2022-08-01T17:40:41.571Z,7.90
2022-08-01T17:43:10.437Z,10.43
2022-08-01T17:45:50.168Z,10.02
2022-08-01T17:50:48.682Z,11.68
2022-08-01T17:53:21.116Z,20.20
2022-08-01T17:55:55.797Z,11.45
2022-08-01T17:58:49.649Z,9.07
2022-08-01T18:01:27.052Z,7.90
2022-08-01T18:03:57.532Z,11.10
2022-08-01T18:06:27.475Z,9.65
2022-08-01T18:08:56.686Z,11.63
2022-08-01T18:11:28.505Z,10.60
2022-08-01T18:13:59.557Z,11.32
2022-08-01T18:16:28.739Z,11.57
2022-08-01T18:18:57.132Z,9.38
2022-08-01T18:21:25.534Z,10.55
2022-08-01T18:23:53.613Z,11.95
2022-08-01T18:26:22.912Z,7.93
2022-08-01T18:28:50.952Z,10.68
2022-08-01T18:31:20.911Z,10.68
2022-08-01T18:33:49.410Z,7.55
2022-08-01T18:36:33.160Z,10.30
2022-08-01T18:39:06.166Z,12.70
2022-08-01T18:42:01.551Z,12.55
2022-08-01T18:44:30.249Z,9.82
2022-08-01T18:47:00.701Z,9.90
2022-08-01T18:49:54.379Z,10.75
2022-08-01T18:52:28.635Z,11.40
2022-08-01T18:55:00.355Z,13.93
2022-08-01T18:57:54.213Z,10.82
2022-08-01T19:00:23.248Z,10.05
2022-08-01T19:02:54.447Z,12.05
2022-08-01T19:05:49.719Z,11.35
2022-08-01T19:08:18.505Z,12.77
2022-08-01T19:10:47.704Z,11.45
2022-08-01T19:13:17.104Z,10.10
2022-08-01T19:15:45.739Z,10.20
2022-08-01T19:24:54.076Z,10.88
2022-08-01T19:27:25.174Z,9.13
2022-08-01T19:30:19.733Z,14.57
2022-08-01T19:32:50.526Z,11.48
2022-08-01T19:35:18.825Z,15.35
2022-08-01T19:37:49.204Z,15.63
2022-08-01T19:40:26.988Z,21.23
2022-08-01T19:43:21.589Z,16.27
2022-08-01T19:45:55.320Z,15.98
2022-08-01T19:48:24.018Z,11.65
2022-08-01T19:50:53.674Z,13.48
2022-08-01T19:53:25.295Z,12.48
2022-08-01T19:55:55.639Z,21.75
2022-08-01T19:58:27.330Z,14.68
2022-08-01T20:01:21.862Z,17.10
2022-08-01T20:03:51.503Z,17.42
2022-08-01T20:06:24.532Z,19.95
2022-08-01T20:08:55.289Z,20.08
2022-08-01T20:11:24.057Z,23.55
2022-08-01T20:13:52.448Z,16.65
2022-08-01T20:16:20.373Z,17.08
2022-08-01T20:18:48.565Z,18.75
2022-08-01T20:21:18.010Z,24.33
2022-08-01T20:23:46.643Z,17.80
2022-08-01T20:26:16.456Z,15.50
2022-08-01T20:28:49.646Z,20.27
2022-08-01T20:31:18.305Z,27.13
2022-08-01T20:33:48.777Z,17.77
2022-08-01T20:36:24.902Z,21.48
2022-08-01T20:38:56.804Z,18.50
2022-08-01T20:41:27.214Z,21.17
2022-08-01T20:43:57.329Z,23.52
2022-08-01T20:46:29.498Z,18.27
2022-08-01T20:49:07.192Z,18.52
2022-08-01T20:51:42.055Z,18.15
2022-08-01T20:54:11.054Z,13.48
2022-08-01T20:56:41.895Z,15.35
2022-08-01T20:59:39.705Z,15.63
2022-08-01T21:02:17.774Z,13.02
2022-08-01T21:04:49.435Z,23.92
2022-08-01T21:07:27.455Z,24.00
2022-08-01T21:10:24.870Z,22.67
2022-08-01T21:13:24.825Z,30.60
2022-08-01T21:16:22.201Z,20.75
2022-08-01T21:27:33.298Z,20.42
2022-08-01T21:30:09.134Z,18.90
2022-08-01T21:32:38.988Z,16.48
2022-08-01T21:35:16.607Z,22.40
2022-08-01T21:37:52.632Z,15.98
2022-08-01T21:40:28.711Z,22.17
2022-08-01T21:43:04.960Z,31.42
2022-08-01T21:45:58.014Z,34.05
2022-08-01T21:51:52.029Z,19.52
2022-08-01T22:04:18.283Z,19.67
2022-08-01T22:06:50.094Z,26.90
2022-08-01T22:09:21.949Z,29.13
2022-08-01T22:11:59.323Z,62.28
2022-08-01T22:14:31.880Z,27.58
2022-08-01T22:17:00.420Z,27.70
2022-08-01T22:19:32.414Z,17.65
2022-08-01T22:22:51.131Z,23.27
2022-08-01T22:25:02.589Z,20.05
2022-08-01T22:28:08.692Z,21.58
2022-08-01T22:30:19.453Z,24.35
2022-08-01T22:33:07.552Z,20.92
2022-08-01T22:35:36.866Z,22.17
2022-08-01T22:38:09.705Z,17.13
2022-08-01T22:40:44.382Z,17.13
2022-08-01T22:43:24.302Z,15.70
2022-08-01T22:46:04.959Z,16.25
2022-08-01T22:48:49.988Z,14.43
2022-08-01T22:51:27.642Z,14.88
2022-08-01T22:54:05.671Z,17.10
2022-08-01T22:56:39.426Z,12.70
2022-08-01T22:59:15.676Z,13.18
2022-08-01T23:01:50.462Z,18.17
2022-08-01T23:04:48.815Z,14.07
2022-08-01T23:07:24.657Z,24.60
2022-08-01T23:09:55.416Z,52.10
2022-08-01T23:12:26.131Z,47.47
2022-08-01T23:14:56.207Z,18.92
2022-08-01T23:17:28.881Z,19.80
2022-08-01T23:20:03.937Z,20.05
2022-08-01T23:22:33.770Z,21.98
2022-08-01T23:25:07.054Z,22.60
2022-08-01T23:28:04.924Z,21.40
2022-08-01T23:30:35.425Z,29.27
2022-08-01T23:33:03.963Z,29.58
2022-08-01T23:35:36.892Z,41.88
2022-08-01T23:38:08.131Z,40.22
2022-08-01T23:40:36.225Z,44.70
2022-08-01T23:43:05.977Z,44.50
2022-08-01T23:46:04.510Z,51.03
2022-08-01T23:48:31.217Z,31.20
2022-08-01T23:50:59.145Z,38.30
2022-08-01T23:53:31.001Z,33.47
2022-08-01T23:56:02.408Z,27.75
2022-08-01T23:58:31.328Z,23.10
